createdAt,value
2022-11-30T00:00:58.009Z,102455.91
2022-11-30T00:03:25.586Z,102446.41
2022-11-30T00:05:52.593Z,102450.03
2022-11-30T00:08:19.137Z,102450.84
2022-11-30T00:10:45.591Z,102454.66
2022-11-30T00:13:12.100Z,102452.03
2022-11-30T00:15:39.324Z,102455.47
2022-11-30T00:18:05.783Z,102456.47
2022-11-30T00:20:32.829Z,102452.19
2022-11-30T00:22:59.297Z,102455.81
2022-11-30T00:25:26.292Z,102455.81
2022-11-30T00:27:52.992Z,102460.25
2022-11-30T00:30:19.589Z,102460.44
2022-11-30T00:32:46.116Z,102463.06
2022-11-30T00:35:12.647Z,102460.81
2022-11-30T00:37:39.195Z,102464.63
2022-11-30T00:40:07.049Z,102462.97
2022-11-30T00:42:33.625Z,102467.41
2022-11-30T00:45:00.115Z,102451.84
2022-11-30T00:47:26.578Z,102448.59
2022-11-30T00:49:53.014Z,102444.69
2022-11-30T00:52:19.524Z,102446.72
2022-11-30T00:54:46.303Z,102450.34
2022-11-30T00:57:12.910Z,102455.59
2022-11-30T00:59:39.391Z,102457.41
2022-11-30T01:02:06.059Z,102463.38
2022-11-30T01:04:32.612Z,102457.22
2022-11-30T01:06:59.023Z,102460.38
2022-11-30T01:09:25.476Z,102458.13
2022-11-30T01:11:51.913Z,102460.91
2022-11-30T01:14:18.436Z,102464.53
2022-11-30T01:16:44.956Z,102469.78
2022-11-30T01:19:11.761Z,102461.28
2022-11-30T01:21:38.464Z,102468.50
2022-11-30T01:24:06.035Z,102471.94
2022-11-30T01:26:32.550Z,102475.22
2022-11-30T01:28:59.030Z,102475.22
2022-11-30T01:31:25.951Z,102473.59
2022-11-30T01:33:55.108Z,102476.22
2022-11-30T01:36:25.470Z,102472.41
2022-11-30T01:38:54.806Z,102468.97
2022-11-30T01:41:30.939Z,102470.97
2022-11-30T01:44:26.112Z,102468.97
2022-11-30T01:47:12.001Z,102470.78
2022-11-30T01:49:44.322Z,102461.09
2022-11-30T01:52:21.799Z,102458.47
2022-11-30T01:55:07.068Z,102463.72
2022-11-30T01:57:38.215Z,102462.91
2022-11-30T02:00:12.975Z,102467.97
2022-11-30T02:02:49.852Z,102465.34
2022-11-30T02:05:17.702Z,102469.78
2022-11-30T02:07:45.060Z,102474.22
2022-11-30T02:10:17.368Z,102468.97
2022-11-30T02:13:12.526Z,102468.50
2022-11-30T02:15:46.852Z,102462.81
2022-11-30T02:18:24.510Z,102471.72
2022-11-30T02:21:13.846Z,102468.44
2022-11-30T02:24:28.429Z,102465.38
2022-11-30T02:27:00.903Z,102470.16
2022-11-30T02:30:01.841Z,102475.41
2022-11-30T02:33:00.670Z,102469.50
2022-11-30T02:35:32.570Z,102474.13
2022-11-30T02:38:01.100Z,102483.00
2022-11-30T02:40:27.841Z,102475.47
2022-11-30T02:42:56.788Z,102474.66
2022-11-30T02:45:53.945Z,102473.84
2022-11-30T02:48:37.549Z,102481.06
2022-11-30T02:51:09.117Z,102475.81
2022-11-30T02:53:36.058Z,102481.25
2022-11-30T02:56:02.730Z,102490.94
2022-11-30T02:58:29.281Z,102483.41
2022-11-30T03:00:55.709Z,102486.22
2022-11-30T03:03:22.221Z,102488.38
2022-11-30T03:05:48.713Z,102489.38
2022-11-30T03:08:15.140Z,102492.97
2022-11-30T03:10:41.607Z,102489.38
2022-11-30T03:13:08.032Z,102496.59
2022-11-30T03:15:35.430Z,102487.13
2022-11-30T03:18:03.096Z,102481.66
2022-11-30T03:20:29.704Z,102486.91
2022-11-30T03:23:00.679Z,102488.13
2022-11-30T03:25:27.896Z,102501.00
2022-11-30T03:27:54.325Z,102490.53
2022-11-30T03:30:20.918Z,102491.56
2022-11-30T03:32:47.412Z,102500.41
2022-11-30T03:35:14.104Z,102492.72
2022-11-30T03:37:40.608Z,102501.41
2022-11-30T03:40:07.901Z,102502.91
2022-11-30T03:42:34.385Z,102505.06
2022-11-30T03:45:00.947Z,102504.91
2022-11-30T03:47:27.371Z,102498.03
2022-11-30T03:49:53.778Z,102501.63
2022-11-30T03:52:20.401Z,102497.84
2022-11-30T03:54:47.227Z,102504.91
2022-11-30T03:57:13.890Z,102505.72
2022-11-30T03:59:40.377Z,102508.16
2022-11-30T04:02:06.864Z,102498.50
2022-11-30T04:04:33.317Z,102505.53
2022-11-30T04:06:59.752Z,102508.34
2022-11-30T04:09:26.289Z,102517.19
2022-11-30T04:11:52.883Z,102506.88
2022-11-30T04:14:19.348Z,102509.84
2022-11-30T04:16:45.841Z,102507.56
2022-11-30T04:19:12.393Z,102510.19
2022-11-30T04:21:38.980Z,102509.72
2022-11-30T04:24:05.882Z,102506.00
2022-11-30T04:26:32.419Z,102519.09
2022-11-30T04:29:01.203Z,102521.09
2022-11-30T04:31:31.035Z,102504.88
2022-11-30T04:33:57.671Z,102509.31
2022-11-30T04:36:24.313Z,102519.78
2022-11-30T04:38:50.855Z,102516.56
2022-11-30T04:41:17.365Z,102510.31
2022-11-30T04:43:43.916Z,102509.50
2022-11-30T04:46:10.809Z,102512.31
2022-11-30T04:48:37.832Z,102512.31
2022-11-30T04:51:07.217Z,102516.56
2022-11-30T04:53:34.918Z,102512.13
2022-11-30T04:56:09.262Z,102516.56
2022-11-30T04:58:36.803Z,102509.88
2022-11-30T05:01:03.460Z,102514.13
2022-11-30T05:03:30.064Z,102510.19
2022-11-30T05:05:56.537Z,102512.34
2022-11-30T05:08:23.038Z,102515.97
2022-11-30T05:10:53.634Z,102520.56
2022-11-30T05:13:22.953Z,102518.13
2022-11-30T05:15:49.967Z,102525.97
2022-11-30T05:18:16.915Z,102531.22
2022-11-30T05:20:48.212Z,102521.56
2022-11-30T05:23:15.656Z,102526.78
2022-11-30T05:25:42.909Z,102528.13
2022-11-30T05:28:09.600Z,102525.03
2022-11-30T05:30:36.094Z,102523.75
2022-11-30T05:33:02.601Z,102521.63
2022-11-30T05:35:29.108Z,102523.78
2022-11-30T05:37:55.564Z,102520.03
2022-11-30T05:40:22.060Z,102524.28
2022-11-30T05:42:54.332Z,102521.50
2022-11-30T05:45:20.794Z,102520.84
2022-11-30T05:47:47.284Z,102523.31
2022-11-30T05:50:13.834Z,102526.25
2022-11-30T05:52:40.331Z,102536.72
2022-11-30T05:55:07.059Z,102527.88
2022-11-30T05:57:38.016Z,102536.72
2022-11-30T06:00:06.551Z,102535.59
2022-11-30T06:02:33.369Z,102542.00
2022-11-30T06:04:59.960Z,102535.31
2022-11-30T06:07:26.493Z,102539.25
2022-11-30T06:09:53.065Z,102537.13
2022-11-30T06:12:19.640Z,102544.69
2022-11-30T06:14:46.343Z,102542.59
2022-11-30T06:17:13.058Z,102550.47
2022-11-30T06:19:39.520Z,102547.69
2022-11-30T06:22:05.927Z,102548.53
2022-11-30T06:24:32.368Z,102552.94
2022-11-30T06:26:58.920Z,102544.81
2022-11-30T06:29:25.408Z,102547.28
2022-11-30T06:31:51.982Z,102550.38
2022-11-30T06:34:18.606Z,102555.63
2022-11-30T06:36:45.047Z,102551.84
2022-11-30T06:39:12.847Z,102551.22
2022-11-30T06:41:40.059Z,102560.53
2022-11-30T06:44:09.052Z,102556.47
2022-11-30T06:46:35.530Z,102556.94
2022-11-30T06:49:02.131Z,102555.78
2022-11-30T06:51:28.808Z,102557.75
2022-11-30T06:53:55.364Z,102564.75
2022-11-30T06:56:22.053Z,102570.66
2022-11-30T06:58:48.563Z,102568.03
2022-11-30T07:01:15.425Z,102572.44
2022-11-30T07:03:42.423Z,102582.38
2022-11-30T07:06:11.772Z,102569.31
2022-11-30T07:08:39.373Z,102579.44
2022-11-30T07:11:07.219Z,102584.16
2022-11-30T07:13:33.816Z,102587.91
2022-11-30T07:16:04.999Z,102589.69
2022-11-30T07:18:32.248Z,102597.69
2022-11-30T07:21:00.997Z,102598.34
2022-11-30T07:23:50.779Z,102598.34
2022-11-30T07:26:22.094Z,102602.59
2022-11-30T07:28:54.651Z,102612.44
2022-11-30T07:31:21.341Z,102608.84
2022-11-30T07:33:49.348Z,102606.88
2022-11-30T07:36:17.920Z,102608.84
2022-11-30T07:38:44.803Z,102615.03
2022-11-30T07:41:11.764Z,102614.88
2022-11-30T07:43:38.362Z,102614.06
2022-11-30T07:46:05.479Z,102626.97
2022-11-30T07:48:33.952Z,102624.03
2022-11-30T07:51:05.344Z,102630.44
2022-11-30T07:53:32.106Z,102631.75
2022-11-30T07:56:06.516Z,102624.56
2022-11-30T07:58:33.334Z,102629.13
2022-11-30T08:01:12.536Z,102636.00
2022-11-30T08:03:39.256Z,102637.63
2022-11-30T08:06:08.508Z,102638.28
2022-11-30T08:08:37.792Z,102647.47
2022-11-30T08:11:05.588Z,102643.88
2022-11-30T08:13:32.845Z,102649.44
2022-11-30T08:16:04.917Z,102643.88
2022-11-30T08:18:31.440Z,102651.06
2022-11-30T08:21:03.597Z,102651.22
2022-11-30T08:23:31.892Z,102656.63
2022-11-30T08:26:12.143Z,102660.22
2022-11-30T08:28:38.866Z,102663.81
2022-11-30T08:31:09.337Z,102658.25
2022-11-30T08:33:37.162Z,102659.41
2022-11-30T08:36:07.958Z,102669.41
2022-11-30T08:38:35.017Z,102669.91
2022-11-30T08:41:02.017Z,102668.44
2022-11-30T08:43:28.835Z,102660.28
2022-11-30T08:45:57.416Z,102665.03
2022-11-30T08:48:24.453Z,102668.09
2022-11-30T08:50:51.164Z,102670.88
2022-11-30T08:53:17.680Z,102675.63
2022-11-30T08:55:44.221Z,102680.53
2022-11-30T08:58:10.650Z,102677.28
2022-11-30T09:00:37.166Z,102668.75
2022-11-30T09:03:03.781Z,102678.75
2022-11-30T09:05:30.548Z,102682.16
2022-11-30T09:07:57.108Z,102686.06
2022-11-30T09:10:23.632Z,102684.72
2022-11-30T09:12:50.121Z,102689.47
2022-11-30T09:15:16.591Z,102682.41
2022-11-30T09:17:43.254Z,102687.28
2022-11-30T09:20:10.184Z,102689.69
2022-11-30T09:22:36.894Z,102687.19
2022-11-30T09:25:03.589Z,102692.09
2022-11-30T09:27:32.472Z,102694.22
2022-11-30T09:29:59.145Z,102699.28
2022-11-30T09:32:25.934Z,102703.88
2022-11-30T09:34:52.752Z,102705.00
2022-11-30T09:37:19.654Z,102698.25
2022-11-30T09:39:46.796Z,102699.56
2022-11-30T09:42:32.051Z,102698.53
2022-11-30T09:45:02.189Z,102700.66
2022-11-30T09:47:47.338Z,102702.44
2022-11-30T09:50:18.363Z,102706.72
2022-11-30T09:52:52.265Z,102714.59
2022-11-30T09:55:30.612Z,102711.84
2022-11-30T09:58:01.988Z,102713.47
2022-11-30T10:00:28.684Z,102714.25
2022-11-30T10:02:58.796Z,102707.28
2022-11-30T10:05:45.206Z,102713.91
2022-11-30T10:08:31.383Z,102709.84
2022-11-30T10:11:32.547Z,102705.47
2022-11-30T10:14:25.023Z,102707.63
2022-11-30T10:17:16.715Z,102698.75
2022-11-30T10:20:00.685Z,102696.78
2022-11-30T10:22:52.121Z,102698.88
2022-11-30T10:25:24.395Z,102700.63
2022-11-30T10:27:53.742Z,102704.19
2022-11-30T10:30:25.544Z,102700.22
2022-11-30T10:32:54.745Z,102692.34
2022-11-30T10:35:33.177Z,102702.84
2022-11-30T10:38:09.646Z,102698.41
2022-11-30T10:40:55.425Z,102693.81
2022-11-30T10:43:32.897Z,102698.19
2022-11-30T10:45:59.912Z,102692.53
2022-11-30T10:48:40.827Z,102694.06
2022-11-30T10:51:08.244Z,102686.94
2022-11-30T10:53:34.741Z,102691.59
2022-11-30T10:56:08.354Z,102687.88
2022-11-30T10:58:40.165Z,102689.06
2022-11-30T11:01:27.870Z,102682.47
2022-11-30T11:04:12.755Z,102672.41
2022-11-30T11:06:59.454Z,102679.84
2022-11-30T11:09:49.071Z,102676.94
2022-11-30T11:12:27.799Z,102674.31
2022-11-30T11:15:13.496Z,102673.94
2022-11-30T11:17:40.004Z,102680.84
2022-11-30T11:20:26.481Z,102675.50
2022-11-30T11:22:53.061Z,102672.75
2022-11-30T11:25:22.610Z,102673.38
2022-11-30T11:27:54.708Z,102671.22
2022-11-30T11:30:27.209Z,102671.84
2022-11-30T11:33:12.104Z,102672.75
2022-11-30T11:35:50.992Z,102669.50
2022-11-30T11:38:24.284Z,102675.94
2022-11-30T11:41:02.497Z,102677.94
2022-11-30T11:43:32.326Z,102668.78
2022-11-30T11:46:12.446Z,102671.69
2022-11-30T11:48:56.173Z,102666.59
2022-11-30T11:51:34.441Z,102667.06
2022-11-30T11:54:27.398Z,102674.59
2022-11-30T11:56:56.599Z,102669.31
2022-11-30T11:59:32.901Z,102674.31
2022-11-30T12:02:16.772Z,102672.94
2022-11-30T12:04:50.416Z,102677.19
2022-11-30T12:07:27.304Z,102673.28
2022-11-30T12:10:35.683Z,102679.38
2022-11-30T12:12:59.357Z,102668.13
2022-11-30T12:15:42.886Z,102669.88
2022-11-30T12:18:23.758Z,102666.50
2022-11-30T12:20:59.718Z,102665.06
2022-11-30T12:23:44.983Z,102667.13
2022-11-30T12:26:36.250Z,102677.13
2022-11-30T12:29:41.458Z,102671.41
2022-11-30T12:32:30.616Z,102676.09
2022-11-30T12:35:15.545Z,102672.94
2022-11-30T12:38:08.037Z,102671.94
2022-11-30T12:41:08.599Z,102668.22
2022-11-30T12:44:04.221Z,102676.38
2022-11-30T12:47:21.010Z,102679.56
2022-11-30T12:50:08.923Z,102683.63
2022-11-30T12:52:38.401Z,102669.41
2022-11-30T12:55:26.618Z,102677.53
2022-11-30T12:58:08.016Z,102684.97
2022-11-30T13:00:49.615Z,102678.44
2022-11-30T13:03:34.584Z,102685.25
2022-11-30T13:06:10.042Z,102687.34
2022-11-30T13:08:51.384Z,102693.75
2022-11-30T13:11:26.507Z,102693.75
2022-11-30T13:13:57.185Z,102696.75
2022-11-30T13:16:25.493Z,102699.91
2022-11-30T13:18:58.729Z,102693.38
2022-11-30T13:21:51.049Z,102705.22
2022-11-30T13:24:24.977Z,102699.22
2022-11-30T13:26:57.640Z,102694.88
2022-11-30T13:29:53.972Z,102698.53
2022-11-30T13:35:29.344Z,102701.50
2022-11-30T13:38:36.838Z,102698.31
2022-11-30T13:41:07.495Z,102700.97
2022-11-30T13:43:45.480Z,102706.44
2022-11-30T13:46:16.393Z,102704.63
2022-11-30T13:48:44.813Z,102702.34
2022-11-30T13:51:11.980Z,102691.72
2022-11-30T13:53:40.381Z,102697.03
2022-11-30T13:56:34.325Z,102703.03
2022-11-30T13:59:35.866Z,102698.78
2022-11-30T14:02:33.786Z,102703.22
2022-11-30T14:05:18.725Z,102701.41
2022-11-30T14:08:00.497Z,102701.56
2022-11-30T14:10:31.351Z,102699.75
2022-11-30T14:13:06.906Z,102712.91
2022-11-30T14:15:39.626Z,102702.75
2022-11-30T14:18:08.833Z,102707.34
2022-11-30T14:20:42.855Z,102711.31
2022-11-30T14:23:15.549Z,102715.44
2022-11-30T14:25:50.509Z,102729.91
2022-11-30T14:28:49.125Z,102729.78
2022-11-30T14:31:20.742Z,102731.13
2022-11-30T14:33:56.089Z,102740.53
2022-11-30T14:36:27.367Z,102740.88
2022-11-30T14:38:53.999Z,102736.97
2022-11-30T14:41:29.022Z,102737.13
2022-11-30T14:44:05.048Z,102737.81
2022-11-30T14:46:35.154Z,102744.22
2022-11-30T14:49:15.028Z,102739.00
2022-11-30T14:51:44.908Z,102734.63
2022-11-30T14:54:14.489Z,102737.94
2022-11-30T14:56:47.317Z,102736.00
2022-11-30T14:59:38.092Z,102743.06
2022-11-30T15:02:12.452Z,102742.59
2022-11-30T15:04:39.096Z,102740.47
2022-11-30T15:07:13.510Z,102735.09
2022-11-30T15:09:43.594Z,102738.41
2022-11-30T15:12:10.366Z,102734.97
2022-11-30T15:14:36.982Z,102743.81
2022-11-30T15:17:03.567Z,102747.94
2022-11-30T15:19:34.567Z,102739.63
2022-11-30T15:22:01.070Z,102742.38
2022-11-30T15:24:29.569Z,102751.22
2022-11-30T15:27:23.649Z,102752.72
2022-11-30T15:30:00.629Z,102744.50
2022-11-30T15:32:27.601Z,102745.00
2022-11-30T15:34:57.471Z,102747.78
2022-11-30T15:37:32.701Z,102741.22
2022-11-30T15:40:01.862Z,102750.41
2022-11-30T15:42:30.412Z,102736.81
2022-11-30T15:45:18.811Z,102739.75
2022-11-30T15:47:45.546Z,102747.44
2022-11-30T15:50:39.142Z,102749.44
2022-11-30T15:53:27.776Z,102756.13
2022-11-30T15:56:01.437Z,102760.06
2022-11-30T15:58:31.281Z,102760.41
2022-11-30T16:01:10.623Z,102750.59
2022-11-30T16:03:55.571Z,102755.16
2022-11-30T16:06:24.246Z,102761.72
2022-11-30T16:08:51.580Z,102760.22
2022-11-30T16:11:19.583Z,102762.34
2022-11-30T16:13:47.510Z,102767.09
2022-11-30T16:16:19.770Z,102766.94
2022-11-30T16:18:46.688Z,102772.97
2022-11-30T16:21:16.550Z,102772.16
2022-11-30T16:23:43.784Z,102767.91
2022-11-30T16:29:04.864Z,102772.16
2022-11-30T16:31:31.584Z,102778.88
2022-11-30T16:33:58.255Z,102776.75
2022-11-30T16:36:24.876Z,102780.03
2022-11-30T16:38:52.998Z,102777.06
2022-11-30T16:41:25.603Z,102782.97
2022-11-30T16:43:55.363Z,102775.28
2022-11-30T16:46:24.295Z,102779.38
2022-11-30T16:48:51.375Z,102773.31
2022-11-30T16:51:27.826Z,102776.91
2022-11-30T16:53:55.350Z,102783.63
2022-11-30T16:56:21.928Z,102782.16
2022-11-30T16:58:48.846Z,102790.19
2022-11-30T17:01:19.590Z,102794.25
2022-11-30T17:03:48.801Z,102783.94
2022-11-30T17:06:21.029Z,102793.44
2022-11-30T17:08:49.044Z,102795.75
2022-11-30T17:11:32.022Z,102797.53
2022-11-30T17:13:58.563Z,102806.34
2022-11-30T17:16:25.374Z,102806.16
2022-11-30T17:18:51.990Z,102809.94
2022-11-30T17:21:25.014Z,102811.06
2022-11-30T17:23:51.602Z,102804.66
2022-11-30T17:26:18.098Z,102808.44
2022-11-30T17:28:44.619Z,102808.22
2022-11-30T17:31:11.679Z,102812.78
2022-11-30T17:33:41.334Z,102814.06
2022-11-30T17:36:13.159Z,102810.88
2022-11-30T17:38:40.084Z,102813.63
2022-11-30T17:41:07.754Z,102814.91
2022-11-30T17:43:36.171Z,102818.00
2022-11-30T17:46:08.683Z,102824.66
2022-11-30T17:48:35.535Z,102817.28
2022-11-30T17:51:02.368Z,102823.63
2022-11-30T17:53:28.944Z,102827.03
2022-11-30T17:56:06.037Z,102825.31
2022-11-30T17:58:36.034Z,102831.66
2022-11-30T18:01:03.700Z,102830.69
2022-11-30T18:03:30.306Z,102836.72
2022-11-30T18:06:03.569Z,102837.16
2022-11-30T18:08:32.647Z,102834.41
2022-11-30T18:10:59.168Z,102841.31
2022-11-30T18:13:29.505Z,102844.88
2022-11-30T18:16:12.481Z,102847.94
2022-11-30T18:18:45.803Z,102849.88
2022-11-30T18:21:16.385Z,102858.69
2022-11-30T18:23:42.883Z,102862.94
2022-11-30T18:26:12.982Z,102858.22
2022-11-30T18:28:39.544Z,102862.78
2022-11-30T18:31:06.782Z,102865.38
2022-11-30T18:33:34.624Z,102863.75
2022-11-30T18:36:02.139Z,102866.81
2022-11-30T18:38:32.853Z,102870.16
2022-11-30T18:41:04.104Z,102874.53
2022-11-30T18:43:31.762Z,102876.84
2022-11-30T18:46:09.761Z,102879.84
2022-11-30T18:48:37.751Z,102874.72
2022-11-30T18:51:16.751Z,102881.28
2022-11-30T18:53:43.945Z,102879.50
2022-11-30T18:56:15.966Z,102880.16
2022-11-30T18:58:42.744Z,102873.50
2022-11-30T19:01:11.854Z,102864.25
2022-11-30T19:03:38.584Z,102876.03
2022-11-30T19:06:07.095Z,102883.72
2022-11-30T19:08:34.673Z,102879.94
2022-11-30T19:11:05.993Z,102881.16
2022-11-30T19:13:33.354Z,102877.41
2022-11-30T19:16:09.494Z,102875.84
2022-11-30T19:18:36.261Z,102875.41
2022-11-30T19:21:10.571Z,102883.22
2022-11-30T19:23:38.738Z,102870.16
2022-11-30T19:26:07.077Z,102871.00
2022-11-30T19:28:35.457Z,102882.03
2022-11-30T19:31:08.329Z,102889.00
2022-11-30T19:33:36.877Z,102887.69
2022-11-30T19:36:05.414Z,102884.19
2022-11-30T19:38:32.042Z,102881.88
2022-11-30T19:40:58.568Z,102884.47
2022-11-30T19:43:25.037Z,102883.97
2022-11-30T19:45:51.594Z,102889.47
2022-11-30T19:48:18.335Z,102892.38
2022-11-30T19:50:44.862Z,102897.38
2022-11-30T19:53:11.420Z,102893.56
2022-11-30T19:55:39.527Z,102891.97
2022-11-30T19:58:06.054Z,102897.91
2022-11-30T20:00:32.602Z,102896.34
2022-11-30T20:02:59.096Z,102899.91
2022-11-30T20:05:25.641Z,102894.00
2022-11-30T20:07:52.222Z,102893.50
2022-11-30T20:10:18.731Z,102897.88
2022-11-30T20:12:45.272Z,102901.75
2022-11-30T20:15:12.138Z,102903.84
2022-11-30T20:17:38.579Z,102913.38
2022-11-30T20:20:05.695Z,102918.50
2022-11-30T20:22:33.013Z,102920.53
2022-11-30T20:24:59.481Z,102924.66
2022-11-30T20:27:26.190Z,102925.31
2022-11-30T20:29:52.751Z,102933.81
2022-11-30T20:32:19.741Z,102933.38
2022-11-30T20:34:46.683Z,102933.47
2022-11-30T20:37:13.725Z,102932.88
2022-11-30T20:39:45.744Z,102942.06
2022-11-30T20:42:13.057Z,102936.03
2022-11-30T20:44:39.624Z,102934.56
2022-11-30T20:47:06.114Z,102932.84
2022-11-30T20:49:32.606Z,102925.69
2022-11-30T20:51:59.150Z,102931.44
2022-11-30T20:54:25.647Z,102931.91
2022-11-30T20:56:52.136Z,102934.38
2022-11-30T20:59:23.625Z,102937.81
2022-11-30T21:01:50.489Z,102937.53
2022-11-30T21:04:17.076Z,102941.91
2022-11-30T21:06:45.544Z,102937.53
2022-11-30T21:09:17.199Z,102934.09
2022-11-30T21:11:44.468Z,102942.44
2022-11-30T21:14:11.804Z,102942.16
2022-11-30T21:16:39.075Z,102941.19
2022-11-30T21:19:06.394Z,102947.06
2022-11-30T21:21:35.094Z,102945.28
2022-11-30T21:24:04.775Z,102942.00
2022-11-30T21:26:34.302Z,102944.63
2022-11-30T21:29:06.986Z,102943.13
2022-11-30T21:31:33.636Z,102945.06
2022-11-30T21:34:00.612Z,102942.44
2022-11-30T21:36:28.107Z,102939.84
2022-11-30T21:39:01.032Z,102944.25
2022-11-30T21:41:30.881Z,102937.38
2022-11-30T21:43:57.525Z,102938.34
2022-11-30T21:46:24.133Z,102936.84
2022-11-30T21:48:51.129Z,102939.59
2022-11-30T21:51:20.834Z,102939.13
2022-11-30T21:53:49.997Z,102938.28
2022-11-30T21:56:19.249Z,102935.00
2022-11-30T21:58:47.971Z,102938.75
2022-11-30T22:01:27.316Z,102943.28
2022-11-30T22:03:55.745Z,102945.22
2022-11-30T22:06:23.617Z,102944.13
2022-11-30T22:08:50.175Z,102944.94
2022-11-30T22:11:19.393Z,102942.19
2022-11-30T22:13:50.768Z,102948.41
2022-11-30T22:16:18.377Z,102942.91
2022-11-30T22:18:45.621Z,102943.41
2022-11-30T22:21:14.710Z,102940.66
2022-11-30T22:23:43.596Z,102943.56
2022-11-30T22:30:06.273Z,102950.38
2022-11-30T22:32:32.700Z,102945.59
2022-11-30T22:34:59.206Z,102955.38
2022-11-30T22:37:31.005Z,102948.81
2022-11-30T22:44:17.506Z,102942.59
2022-11-30T22:54:32.062Z,102951.00
2022-11-30T23:05:18.938Z,102945.84
2022-11-30T23:15:42.027Z,102952.41
